Aviation Digital Data Service (ADDS)

Output produced by METARs form (1739 UTC 21 September 2019)
found at http://aviationweather.gov/metar/data/
 
METAR text: KRNT 211653Z 20006KT 10SM OVC022 17/12 A3014 RMK AO2 SLP212 T01670117
Conditions at: KRNT (RENTON , WA, US) observed 1653 UTC 21 September 2019
Temperature: 16.7°C (62°F)
Dewpoint: 11.7°C (53°F) [RH = 72%]
Pressure (altimeter): 30.14 inches Hg (1020.7 mb)
[Sea-level pressure: 1021.2 mb]
Winds: from the SSW (200 degrees) at 7 MPH (6 knots; 3.1 m/s)
Visibility: 10 or more miles (16+ km)
Ceiling: 2200 feet AGL
Clouds: overcast cloud deck at 2200 feet AGL
Weather: no significant weather observed at this time

METAR text: KRNT 211553Z VRB04KT 10SM OVC018 16/12 A3015 RMK AO2 SLP215 T01610122
Conditions at: KRNT (RENTON , WA, US) observed 1553 UTC 21 September 2019
Temperature: 16.1°C (61°F)
Dewpoint: 12.2°C (54°F) [RH = 78%]
Pressure (altimeter): 30.15 inches Hg (1021.1 mb)
[Sea-level pressure: 1021.5 mb]
Winds: variable direction winds at 5 MPH (4 knots; 2.1 m/s)
Visibility: 10 or more miles (16+ km)
Ceiling: 1800 feet AGL
Clouds: overcast cloud deck at 1800 feet AGL
Weather: no significant weather observed at this time